sensor_id;sensor_type;location;lat;lon;timestamp;P1;durP1;ratioP1;P2;durP2;ratioP2
80503;SDS011;69825;51.190;6.808;2023-09-18T00:02:24;1.63;;;1.52;;
80503;SDS011;69825;51.190;6.808;2023-09-18T00:04:50;1.58;;;1.45;;
80503;SDS011;69825;51.190;6.808;2023-09-18T00:07:15;1.40;;;1.35;;
80503;SDS011;69825;51.190;6.808;2023-09-18T00:09:40;1.63;;;1.50;;
80503;SDS011;69825;51.190;6.808;2023-09-18T00:12:06;1.33;;;1.33;;
80503;SDS011;69825;51.190;6.808;2023-09-18T00:14:31;1.63;;;1.52;;
80503;SDS011;69825;51.190;6.808;2023-09-18T00:16:57;1.40;;;1.40;;
80503;SDS011;69825;51.190;6.808;2023-09-18T00:19:22;1.48;;;1.38;;
80503;SDS011;69825;51.190;6.808;2023-09-18T00:21:48;1.38;;;1.35;;
80503;SDS011;69825;51.190;6.808;2023-09-18T00:24:14;1.63;;;1.52;;
80503;SDS011;69825;51.190;6.808;2023-09-18T00:26:39;1.50;;;1.40;;
80503;SDS011;69825;51.190;6.808;2023-09-18T00:29:05;1.60;;;1.50;;
80503;SDS011;69825;51.190;6.808;2023-09-18T00:31:30;1.50;;;1.40;;
80503;SDS011;69825;51.190;6.808;2023-09-18T00:33:55;1.67;;;1.58;;
80503;SDS011;69825;51.190;6.808;2023-09-18T00:36:21;1.30;;;1.30;;
80503;SDS011;69825;51.190;6.808;2023-09-18T00:38:46;1.45;;;1.40;;
80503;SDS011;69825;51.190;6.808;2023-09-18T00:41:12;1.45;;;1.35;;
80503;SDS011;69825;51.190;6.808;2023-09-18T00:43:37;1.55;;;1.45;;
80503;SDS011;69825;51.190;6.808;2023-09-18T00:46:03;1.65;;;1.55;;
80503;SDS011;69825;51.190;6.808;2023-09-18T00:48:28;1.50;;;1.40;;
80503;SDS011;69825;51.190;6.808;2023-09-18T00:50:54;1.60;;;1.50;;
80503;SDS011;69825;51.190;6.808;2023-09-18T00:53:21;1.38;;;1.30;;
80503;SDS011;69825;51.190;6.808;2023-09-18T00:55:48;1.27;;;1.23;;
80503;SDS011;69825;51.190;6.808;2023-09-18T00:58:17;1.63;;;1.52;;
80503;SDS011;69825;51.190;6.808;2023-09-18T01:00:43;1.35;;;1.33;;
80503;SDS011;69825;51.190;6.808;2023-09-18T01:03:09;1.40;;;1.30;;
80503;SDS011;69825;51.190;6.808;2023-09-18T01:05:34;1.40;;;1.35;;
80503;SDS011;69825;51.190;6.808;2023-09-18T01:08:01;1.73;;;1.63;;
80503;SDS011;69825;51.190;6.808;2023-09-18T01:10:28;1.40;;;1.35;;
80503;SDS011;69825;51.190;6.808;2023-09-18T01:15:37;1.50;;;1.40;;
80503;SDS011;69825;51.190;6.808;2023-09-18T01:18:10;1.40;;;1.30;;
80503;SDS011;69825;51.190;6.808;2023-09-18T01:20:35;1.60;;;1.50;;
80503;SDS011;69825;51.190;6.808;2023-09-18T01:23:01;1.60;;;1.50;;
80503;SDS011;69825;51.190;6.808;2023-09-18T01:25:26;1.52;;;1.42;;
80503;SDS011;69825;51.190;6.808;2023-09-18T01:27:51;1.40;;;1.40;;
80503;SDS011;69825;51.190;6.808;2023-09-18T01:30:17;1.60;;;1.50;;
80503;SDS011;69825;51.190;6.808;2023-09-18T01:32:43;1.45;;;1.40;;
80503;SDS011;69825;51.190;6.808;2023-09-18T01:35:11;1.70;;;1.60;;
80503;SDS011;69825;51.190;6.808;2023-09-18T01:37:38;1.58;;;1.48;;
80503;SDS011;69825;51.190;6.808;2023-09-18T01:40:05;1.30;;;1.30;;
80503;SDS011;69825;51.190;6.808;2023-09-18T01:42:32;1.30;;;1.30;;
80503;SDS011;69825;51.190;6.808;2023-09-18T01:44:59;1.50;;;1.40;;
80503;SDS011;69825;51.190;6.808;2023-09-18T01:47:24;1.30;;;1.30;;
80503;SDS011;69825;51.190;6.808;2023-09-18T01:49:51;1.52;;;1.42;;
80503;SDS011;69825;51.190;6.808;2023-09-18T01:52:17;1.40;;;1.40;;
80503;SDS011;69825;51.190;6.808;2023-09-18T01:54:42;1.40;;;1.40;;
80503;SDS011;69825;51.190;6.808;2023-09-18T01:57:08;1.55;;;1.45;;
80503;SDS011;69825;51.190;6.808;2023-09-18T01:59:33;1.50;;;1.40;;
80503;SDS011;69825;51.190;6.808;2023-09-18T02:02:00;1.48;;;1.38;;
80503;SDS011;69825;51.190;6.808;2023-09-18T02:04:26;1.40;;;1.30;;
80503;SDS011;69825;51.190;6.808;2023-09-18T02:06:52;1.40;;;1.30;;
80503;SDS011;69825;51.190;6.808;2023-09-18T02:09:17;1.83;;;1.52;;
80503;SDS011;69825;51.190;6.808;2023-09-18T02:11:44;1.90;;;1.60;;
80503;SDS011;69825;51.190;6.808;2023-09-18T02:14:10;1.50;;;1.40;;
80503;SDS011;69825;51.190;6.808;2023-09-18T02:16:37;1.27;;;1.25;;
80503;SDS011;69825;51.190;6.808;2023-09-18T02:19:08;1.40;;;1.40;;
80503;SDS011;69825;51.190;6.808;2023-09-18T02:21:35;1.50;;;1.40;;
80503;SDS011;69825;51.190;6.808;2023-09-18T02:24:01;1.40;;;1.40;;
80503;SDS011;69825;51.190;6.808;2023-09-18T02:26:27;1.60;;;1.50;;
80503;SDS011;69825;51.190;6.808;2023-09-18T02:28:53;1.45;;;1.35;;
80503;SDS011;69825;51.190;6.808;2023-09-18T02:31:19;1.48;;;1.40;;
80503;SDS011;69825;51.190;6.808;2023-09-18T02:33:45;1.65;;;1.55;;
80503;SDS011;69825;51.190;6.808;2023-09-18T02:36:11;1.30;;;1.30;;
80503;SDS011;69825;51.190;6.808;2023-09-18T02:38:37;1.60;;;1.50;;
80503;SDS011;69825;51.190;6.808;2023-09-18T02:41:03;1.30;;;1.30;;
80503;SDS011;69825;51.190;6.808;2023-09-18T02:43:28;1.92;;;1.50;;
80503;SDS011;69825;51.190;6.808;2023-09-18T02:45:53;1.45;;;1.35;;
80503;SDS011;69825;51.190;6.808;2023-09-18T02:48:19;1.42;;;1.33;;
80503;SDS011;69825;51.190;6.808;2023-09-18T02:50:44;1.45;;;1.35;;
80503;SDS011;69825;51.190;6.808;2023-09-18T02:53:16;1.55;;;1.48;;
80503;SDS011;69825;51.190;6.808;2023-09-18T02:55:51;1.42;;;1.40;;
80503;SDS011;69825;51.190;6.808;2023-09-18T02:58:18;1.67;;;1.52;;
80503;SDS011;69825;51.190;6.808;2023-09-18T03:00:44;1.60;;;1.50;;
80503;SDS011;69825;51.190;6.808;2023-09-18T03:03:11;1.50;;;1.40;;
80503;SDS011;69825;51.190;6.808;2023-09-18T03:05:37;1.45;;;1.30;;
80503;SDS011;69825;51.190;6.808;2023-09-18T03:08:04;1.58;;;1.48;;
80503;SDS011;69825;51.190;6.808;2023-09-18T03:10:33;1.40;;;1.35;;
80503;SDS011;69825;51.190;6.808;2023-09-18T03:12:59;1.45;;;1.45;;
80503;SDS011;69825;51.190;6.808;2023-09-18T03:15:25;2.00;;;1.90;;
80503;SDS011;69825;51.190;6.808;2023-09-18T03:17:50;1.48;;;1.38;;
80503;SDS011;69825;51.190;6.808;2023-09-18T03:20:16;1.40;;;1.40;;
80503;SDS011;69825;51.190;6.808;2023-09-18T03:22:41;1.40;;;1.30;;
80503;SDS011;69825;51.190;6.808;2023-09-18T03:25:07;1.65;;;1.55;;
80503;SDS011;69825;51.190;6.808;2023-09-18T03:27:32;1.50;;;1.40;;
80503;SDS011;69825;51.190;6.808;2023-09-18T03:29:58;1.90;;;1.80;;
80503;SDS011;69825;51.190;6.808;2023-09-18T03:32:23;1.50;;;1.40;;
80503;SDS011;69825;51.190;6.808;2023-09-18T03:34:52;1.55;;;1.45;;
80503;SDS011;69825;51.190;6.808;2023-09-18T03:37:18;1.40;;;1.40;;
80503;SDS011;69825;51.190;6.808;2023-09-18T03:39:43;1.70;;;1.60;;
80503;SDS011;69825;51.190;6.808;2023-09-18T03:42:09;1.40;;;1.30;;
80503;SDS011;69825;51.190;6.808;2023-09-18T03:44:34;1.48;;;1.30;;
80503;SDS011;69825;51.190;6.808;2023-09-18T03:46:59;1.60;;;1.50;;
80503;SDS011;69825;51.190;6.808;2023-09-18T03:49:26;1.40;;;1.40;;
80503;SDS011;69825;51.190;6.808;2023-09-18T03:51:52;1.60;;;1.50;;
80503;SDS011;69825;51.190;6.808;2023-09-18T03:54:17;1.42;;;1.33;;
80503;SDS011;69825;51.190;6.808;2023-09-18T03:56:43;1.35;;;1.35;;
80503;SDS011;69825;51.190;6.808;2023-09-18T03:59:08;1.40;;;1.30;;
80503;SDS011;69825;51.190;6.808;2023-09-18T04:01:33;1.80;;;1.70;;
80503;SDS011;69825;51.190;6.808;2023-09-18T04:03:59;1.42;;;1.33;;
80503;SDS011;69825;51.190;6.808;2023-09-18T04:06:25;1.50;;;1.40;;
80503;SDS011;69825;51.190;6.808;2023-09-18T04:09:00;1.45;;;1.40;;
80503;SDS011;69825;51.190;6.808;2023-09-18T04:11:25;1.60;;;1.50;;
80503;SDS011;69825;51.190;6.808;2023-09-18T04:13:51;1.52;;;1.40;;
80503;SDS011;69825;51.190;6.808;2023-09-18T04:16:16;1.60;;;1.50;;
80503;SDS011;69825;51.190;6.808;2023-09-18T04:18:42;1.52;;;1.42;;
80503;SDS011;69825;51.190;6.808;2023-09-18T04:21:08;1.23;;;1.23;;
80503;SDS011;69825;51.190;6.808;2023-09-18T04:23:35;1.85;;;1.75;;
80503;SDS011;69825;51.190;6.808;2023-09-18T04:26:01;1.45;;;1.35;;
80503;SDS011;69825;51.190;6.808;2023-09-18T04:28:27;1.63;;;1.52;;
80503;SDS011;69825;51.190;6.808;2023-09-18T04:30:52;1.77;;;1.67;;
80503;SDS011;69825;51.190;6.808;2023-09-18T04:33:17;2.20;;;2.00;;
80503;SDS011;69825;51.190;6.808;2023-09-18T04:35:43;2.70;;;2.17;;
80503;SDS011;69825;51.190;6.808;2023-09-18T04:38:09;6.05;;;2.70;;
80503;SDS011;69825;51.190;6.808;2023-09-18T04:40:37;6.38;;;2.30;;
80503;SDS011;69825;51.190;6.808;2023-09-18T04:43:02;4.25;;;2.40;;
80503;SDS011;69825;51.190;6.808;2023-09-18T04:45:31;3.58;;;2.42;;
80503;SDS011;69825;51.190;6.808;2023-09-18T04:47:56;4.32;;;2.30;;
80503;SDS011;69825;51.190;6.808;2023-09-18T04:50:22;4.75;;;2.42;;
80503;SDS011;69825;51.190;6.808;2023-09-18T04:52:47;3.58;;;2.53;;
80503;SDS011;69825;51.190;6.808;2023-09-18T04:55:13;4.55;;;2.45;;
80503;SDS011;69825;51.190;6.808;2023-09-18T04:57:39;3.85;;;2.63;;
80503;SDS011;69825;51.190;6.808;2023-09-18T05:00:04;4.00;;;2.60;;
80503;SDS011;69825;51.190;6.808;2023-09-18T05:02:33;3.80;;;2.42;;
80503;SDS011;69825;51.190;6.808;2023-09-18T05:04:59;3.53;;;2.30;;
80503;SDS011;69825;51.190;6.808;2023-09-18T05:07:25;4.00;;;2.70;;
80503;SDS011;69825;51.190;6.808;2023-09-18T05:09:50;3.58;;;2.72;;
80503;SDS011;69825;51.190;6.808;2023-09-18T05:12:16;4.70;;;2.25;;
80503;SDS011;69825;51.190;6.808;2023-09-18T05:14:41;4.53;;;2.88;;
80503;SDS011;69825;51.190;6.808;2023-09-18T05:17:14;5.38;;;2.95;;
80503;SDS011;69825;51.190;6.808;2023-09-18T05:19:40;5.78;;;2.72;;
80503;SDS011;69825;51.190;6.808;2023-09-18T05:22:06;4.55;;;2.55;;
80503;SDS011;69825;51.190;6.808;2023-09-18T05:24:32;5.40;;;2.97;;
80503;SDS011;69825;51.190;6.808;2023-09-18T05:26:58;5.78;;;2.83;;
80503;SDS011;69825;51.190;6.808;2023-09-18T05:29:24;8.73;;;2.78;;
80503;SDS011;69825;51.190;6.808;2023-09-18T05:31:49;7.28;;;2.65;;
80503;SDS011;69825;51.190;6.808;2023-09-18T05:34:14;3.40;;;2.40;;
80503;SDS011;69825;51.190;6.808;2023-09-18T05:36:40;5.40;;;2.85;;
80503;SDS011;69825;51.190;6.808;2023-09-18T05:39:05;6.60;;;2.80;;
80503;SDS011;69825;51.190;6.808;2023-09-18T05:41:35;7.10;;;2.75;;
80503;SDS011;69825;51.190;6.808;2023-09-18T05:44:00;4.38;;;2.45;;
80503;SDS011;69825;51.190;6.808;2023-09-18T05:46:28;7.38;;;2.80;;
80503;SDS011;69825;51.190;6.808;2023-09-18T05:48:54;5.63;;;2.70;;
80503;SDS011;69825;51.190;6.808;2023-09-18T05:51:21;6.78;;;3.03;;
80503;SDS011;69825;51.190;6.808;2023-09-18T05:53:47;6.03;;;2.50;;
80503;SDS011;69825;51.190;6.808;2023-09-18T05:56:13;5.38;;;2.80;;
80503;SDS011;69825;51.190;6.808;2023-09-18T05:58:39;6.82;;;2.70;;
80503;SDS011;69825;51.190;6.808;2023-09-18T06:01:04;5.97;;;3.10;;
80503;SDS011;69825;51.190;6.808;2023-09-18T06:03:30;9.88;;;2.83;;
80503;SDS011;69825;51.190;6.808;2023-09-18T06:06:00;9.93;;;2.95;;
80503;SDS011;69825;51.190;6.808;2023-09-18T06:08:26;7.47;;;2.90;;
80503;SDS011;69825;51.190;6.808;2023-09-18T06:10:51;10.38;;;2.95;;
80503;SDS011;69825;51.190;6.808;2023-09-18T06:13:17;8.85;;;2.92;;
80503;SDS011;69825;51.190;6.808;2023-09-18T06:15:42;6.00;;;2.50;;
80503;SDS011;69825;51.190;6.808;2023-09-18T06:18:07;7.57;;;2.83;;
80503;SDS011;69825;51.190;6.808;2023-09-18T06:20:33;5.95;;;2.42;;
80503;SDS011;69825;51.190;6.808;2023-09-18T06:22:58;9.95;;;2.63;;
80503;SDS011;69825;51.190;6.808;2023-09-18T06:25:24;8.48;;;2.63;;
80503;SDS011;69825;51.190;6.808;2023-09-18T06:27:49;7.55;;;2.20;;
80503;SDS011;69825;51.190;6.808;2023-09-18T06:30:15;7.93;;;2.50;;
80503;SDS011;69825;51.190;6.808;2023-09-18T06:32:40;6.30;;;2.35;;
80503;SDS011;69825;51.190;6.808;2023-09-18T06:35:06;4.53;;;2.25;;
80503;SDS011;69825;51.190;6.808;2023-09-18T06:37:33;9.15;;;2.20;;
80503;SDS011;69825;51.190;6.808;2023-09-18T06:39:58;6.25;;;2.10;;
80503;SDS011;69825;51.190;6.808;2023-09-18T06:42:24;2.58;;;1.90;;
80503;SDS011;69825;51.190;6.808;2023-09-18T06:44:49;4.72;;;2.03;;
80503;SDS011;69825;51.190;6.808;2023-09-18T06:47:14;4.38;;;1.90;;
80503;SDS011;69825;51.190;6.808;2023-09-18T06:49:40;3.45;;;1.88;;
80503;SDS011;69825;51.190;6.808;2023-09-18T06:52:06;4.22;;;1.88;;
80503;SDS011;69825;51.190;6.808;2023-09-18T06:54:32;6.13;;;1.90;;
80503;SDS011;69825;51.190;6.808;2023-09-18T06:56:58;4.57;;;1.75;;
80503;SDS011;69825;51.190;6.808;2023-09-18T06:59:23;4.90;;;1.88;;
80503;SDS011;69825;51.190;6.808;2023-09-18T07:01:48;5.20;;;2.00;;
80503;SDS011;69825;51.190;6.808;2023-09-18T07:04:14;4.65;;;2.38;;
80503;SDS011;69825;51.190;6.808;2023-09-18T07:06:39;4.43;;;1.85;;
80503;SDS011;69825;51.190;6.808;2023-09-18T07:09:05;3.40;;;1.77;;
80503;SDS011;69825;51.190;6.808;2023-09-18T07:11:32;3.15;;;1.77;;
80503;SDS011;69825;51.190;6.808;2023-09-18T07:13:58;3.38;;;1.52;;
80503;SDS011;69825;51.190;6.808;2023-09-18T07:16:23;4.35;;;1.70;;
80503;SDS011;69825;51.190;6.808;2023-09-18T07:18:49;6.28;;;1.80;;
80503;SDS011;69825;51.190;6.808;2023-09-18T07:21:15;3.00;;;1.60;;
80503;SDS011;69825;51.190;6.808;2023-09-18T07:23:40;3.83;;;1.85;;
80503;SDS011;69825;51.190;6.808;2023-09-18T07:26:05;5.38;;;1.70;;
80503;SDS011;69825;51.190;6.808;2023-09-18T07:28:31;4.03;;;1.90;;
80503;SDS011;69825;51.190;6.808;2023-09-18T07:30:56;3.33;;;1.85;;
80503;SDS011;69825;51.190;6.808;2023-09-18T07:33:22;5.20;;;1.77;;
80503;SDS011;69825;51.190;6.808;2023-09-18T07:35:47;5.88;;;1.92;;
80503;SDS011;69825;51.190;6.808;2023-09-18T07:38:14;2.38;;;1.55;;
80503;SDS011;69825;51.190;6.808;2023-09-18T07:40:40;3.92;;;2.10;;
80503;SDS011;69825;51.190;6.808;2023-09-18T07:43:05;5.38;;;1.85;;
80503;SDS011;69825;51.190;6.808;2023-09-18T07:45:30;2.13;;;1.65;;
80503;SDS011;69825;51.190;6.808;2023-09-18T07:47:56;5.03;;;1.63;;
80503;SDS011;69825;51.190;6.808;2023-09-18T07:50:21;3.75;;;1.83;;
80503;SDS011;69825;51.190;6.808;2023-09-18T07:52:47;4.70;;;1.83;;
80503;SDS011;69825;51.190;6.808;2023-09-18T07:55:12;3.72;;;1.55;;
80503;SDS011;69825;51.190;6.808;2023-09-18T07:57:37;5.40;;;1.70;;
80503;SDS011;69825;51.190;6.808;2023-09-18T08:00:04;3.60;;;1.55;;
80503;SDS011;69825;51.190;6.808;2023-09-18T08:02:37;4.13;;;1.73;;
80503;SDS011;69825;51.190;6.808;2023-09-18T08:05:03;3.65;;;1.80;;
80503;SDS011;69825;51.190;6.808;2023-09-18T08:07:30;4.15;;;1.83;;
80503;SDS011;69825;51.190;6.808;2023-09-18T08:09:55;3.40;;;1.70;;
80503;SDS011;69825;51.190;6.808;2023-09-18T08:12:21;3.80;;;1.65;;
80503;SDS011;69825;51.190;6.808;2023-09-18T08:14:46;1.98;;;1.40;;
80503;SDS011;69825;51.190;6.808;2023-09-18T08:17:13;2.72;;;1.60;;
80503;SDS011;69825;51.190;6.808;2023-09-18T08:19:39;2.88;;;1.60;;
80503;SDS011;69825;51.190;6.808;2023-09-18T08:22:04;5.85;;;1.60;;
80503;SDS011;69825;51.190;6.808;2023-09-18T08:24:30;2.92;;;1.40;;
80503;SDS011;69825;51.190;6.808;2023-09-18T08:26:55;5.35;;;1.58;;
80503;SDS011;69825;51.190;6.808;2023-09-18T08:29:21;3.50;;;1.27;;
80503;SDS011;69825;51.190;6.808;2023-09-18T08:31:47;3.17;;;1.20;;
80503;SDS011;69825;51.190;6.808;2023-09-18T08:34:13;3.20;;;1.38;;
80503;SDS011;69825;51.190;6.808;2023-09-18T08:36:39;4.30;;;1.60;;
80503;SDS011;69825;51.190;6.808;2023-09-18T08:39:04;2.60;;;1.45;;
80503;SDS011;69825;51.190;6.808;2023-09-18T08:41:31;4.40;;;1.20;;
80503;SDS011;69825;51.190;6.808;2023-09-18T08:44:01;4.43;;;1.60;;
80503;SDS011;69825;51.190;6.808;2023-09-18T08:46:28;3.45;;;1.60;;
80503;SDS011;69825;51.190;6.808;2023-09-18T08:48:54;2.45;;;1.40;;
80503;SDS011;69825;51.190;6.808;2023-09-18T08:51:21;2.72;;;1.20;;
80503;SDS011;69825;51.190;6.808;2023-09-18T08:53:48;2.17;;;1.20;;
80503;SDS011;69825;51.190;6.808;2023-09-18T08:56:13;3.53;;;1.30;;
80503;SDS011;69825;51.190;6.808;2023-09-18T08:58:40;4.70;;;1.30;;
80503;SDS011;69825;51.190;6.808;2023-09-18T09:01:11;4.00;;;1.40;;
80503;SDS011;69825;51.190;6.808;2023-09-18T09:03:37;2.03;;;1.40;;
80503;SDS011;69825;51.190;6.808;2023-09-18T09:06:07;4.90;;;1.33;;
80503;SDS011;69825;51.190;6.808;2023-09-18T09:08:34;2.60;;;1.30;;
80503;SDS011;69825;51.190;6.808;2023-09-18T09:11:00;1.88;;;1.40;;
80503;SDS011;69825;51.190;6.808;2023-09-18T09:13:26;2.92;;;1.40;;
80503;SDS011;69825;51.190;6.808;2023-09-18T09:15:52;2.58;;;1.20;;
80503;SDS011;69825;51.190;6.808;2023-09-18T09:18:21;2.53;;;1.20;;
80503;SDS011;69825;51.190;6.808;2023-09-18T09:20:57;2.65;;;1.10;;
80503;SDS011;69825;51.190;6.808;2023-09-18T09:23:28;2.05;;;1.42;;
80503;SDS011;69825;51.190;6.808;2023-09-18T09:26:11;3.22;;;1.60;;
80503;SDS011;69825;51.190;6.808;2023-09-18T09:28:38;4.38;;;1.70;;
80503;SDS011;69825;51.190;6.808;2023-09-18T09:31:04;4.63;;;1.20;;
80503;SDS011;69825;51.190;6.808;2023-09-18T09:33:30;2.45;;;1.40;;
80503;SDS011;69825;51.190;6.808;2023-09-18T09:35:56;1.95;;;1.20;;
80503;SDS011;69825;51.190;6.808;2023-09-18T09:38:29;3.63;;;1.30;;
80503;SDS011;69825;51.190;6.808;2023-09-18T09:41:01;3.80;;;1.77;;
80503;SDS011;69825;51.190;6.808;2023-09-18T09:43:29;2.67;;;1.40;;
80503;SDS011;69825;51.190;6.808;2023-09-18T09:45:57;2.08;;;1.30;;
80503;SDS011;69825;51.190;6.808;2023-09-18T09:48:23;2.72;;;1.42;;
80503;SDS011;69825;51.190;6.808;2023-09-18T09:50:50;3.10;;;1.25;;
80503;SDS011;69825;51.190;6.808;2023-09-18T09:53:16;2.17;;;1.30;;
80503;SDS011;69825;51.190;6.808;2023-09-18T09:55:43;1.17;;;1.05;;
80503;SDS011;69825;51.190;6.808;2023-09-18T09:58:09;3.72;;;1.33;;
80503;SDS011;69825;51.190;6.808;2023-09-18T10:00:41;2.78;;;1.27;;
80503;SDS011;69825;51.190;6.808;2023-09-18T10:03:09;3.42;;;1.45;;
80503;SDS011;69825;51.190;6.808;2023-09-18T10:05:36;3.00;;;1.35;;
80503;SDS011;69825;51.190;6.808;2023-09-18T10:08:06;3.40;;;1.40;;
80503;SDS011;69825;51.190;6.808;2023-09-18T10:10:35;1.83;;;1.20;;
80503;SDS011;69825;51.190;6.808;2023-09-18T10:13:04;2.55;;;1.20;;
80503;SDS011;69825;51.190;6.808;2023-09-18T10:15:34;1.65;;;1.10;;
80503;SDS011;69825;51.190;6.808;2023-09-18T10:18:04;2.25;;;1.42;;
80503;SDS011;69825;51.190;6.808;2023-09-18T10:20:32;2.00;;;1.30;;
80503;SDS011;69825;51.190;6.808;2023-09-18T10:23:01;4.13;;;1.25;;
80503;SDS011;69825;51.190;6.808;2023-09-18T10:25:30;2.85;;;1.13;;
80503;SDS011;69825;51.190;6.808;2023-09-18T10:27:57;3.10;;;1.27;;
80503;SDS011;69825;51.190;6.808;2023-09-18T10:30:26;1.85;;;1.10;;
80503;SDS011;69825;51.190;6.808;2023-09-18T10:32:54;1.23;;;1.13;;
80503;SDS011;69825;51.190;6.808;2023-09-18T10:35:22;2.20;;;1.13;;
80503;SDS011;69825;51.190;6.808;2023-09-18T10:37:49;3.28;;;1.27;;
80503;SDS011;69825;51.190;6.808;2023-09-18T10:40:16;1.48;;;1.25;;
80503;SDS011;69825;51.190;6.808;2023-09-18T10:42:42;3.00;;;1.30;;
80503;SDS011;69825;51.190;6.808;2023-09-18T10:45:08;1.33;;;1.23;;
80503;SDS011;69825;51.190;6.808;2023-09-18T10:47:37;2.35;;;1.10;;
80503;SDS011;69825;51.190;6.808;2023-09-18T10:50:04;1.60;;;1.23;;
80503;SDS011;69825;51.190;6.808;2023-09-18T10:52:32;1.27;;;0.90;;
80503;SDS011;69825;51.190;6.808;2023-09-18T10:54:57;1.42;;;1.20;;
80503;SDS011;69825;51.190;6.808;2023-09-18T10:57:23;1.20;;;1.10;;
80503;SDS011;69825;51.190;6.808;2023-09-18T10:59:49;1.35;;;1.00;;
80503;SDS011;69825;51.190;6.808;2023-09-18T11:02:15;1.60;;;1.13;;
80503;SDS011;69825;51.190;6.808;2023-09-18T11:04:41;1.25;;;1.15;;
80503;SDS011;69825;51.190;6.808;2023-09-18T11:07:07;1.20;;;1.10;;
80503;SDS011;69825;51.190;6.808;2023-09-18T11:09:43;1.92;;;1.30;;
80503;SDS011;69825;51.190;6.808;2023-09-18T11:12:10;1.33;;;1.23;;
80503;SDS011;69825;51.190;6.808;2023-09-18T11:14:49;1.83;;;1.17;;
80503;SDS011;69825;51.190;6.808;2023-09-18T11:17:30;2.03;;;1.20;;
80503;SDS011;69825;51.190;6.808;2023-09-18T11:20:01;1.20;;;1.10;;
80503;SDS011;69825;51.190;6.808;2023-09-18T11:22:27;3.10;;;1.42;;
80503;SDS011;69825;51.190;6.808;2023-09-18T11:24:52;5.85;;;1.30;;
80503;SDS011;69825;51.190;6.808;2023-09-18T11:27:23;1.52;;;1.35;;
80503;SDS011;69825;51.190;6.808;2023-09-18T11:29:51;3.88;;;1.40;;
80503;SDS011;69825;51.190;6.808;2023-09-18T11:32:36;2.40;;;1.40;;
80503;SDS011;69825;51.190;6.808;2023-09-18T11:35:08;3.03;;;1.40;;
80503;SDS011;69825;51.190;6.808;2023-09-18T11:37:35;3.53;;;1.55;;
80503;SDS011;69825;51.190;6.808;2023-09-18T11:40:00;3.53;;;1.52;;
80503;SDS011;69825;51.190;6.808;2023-09-18T11:42:26;3.92;;;1.50;;
80503;SDS011;69825;51.190;6.808;2023-09-18T11:44:53;1.58;;;1.48;;
80503;SDS011;69825;51.190;6.808;2023-09-18T11:47:21;2.97;;;1.55;;
80503;SDS011;69825;51.190;6.808;2023-09-18T11:49:53;1.85;;;1.52;;
80503;SDS011;69825;51.190;6.808;2023-09-18T11:52:22;1.77;;;1.55;;
80503;SDS011;69825;51.190;6.808;2023-09-18T11:54:48;1.83;;;1.48;;
80503;SDS011;69825;51.190;6.808;2023-09-18T11:57:14;3.47;;;1.30;;
80503;SDS011;69825;51.190;6.808;2023-09-18T11:59:40;2.50;;;1.50;;
80503;SDS011;69825;51.190;6.808;2023-09-18T12:02:11;2.40;;;1.35;;
80503;SDS011;69825;51.190;6.808;2023-09-18T12:04:52;4.53;;;1.50;;
80503;SDS011;69825;51.190;6.808;2023-09-18T12:07:18;2.65;;;1.50;;
80503;SDS011;69825;51.190;6.808;2023-09-18T12:09:44;1.80;;;1.35;;
80503;SDS011;69825;51.190;6.808;2023-09-18T12:12:09;2.05;;;1.52;;
80503;SDS011;69825;51.190;6.808;2023-09-18T12:14:39;1.50;;;1.40;;
80503;SDS011;69825;51.190;6.808;2023-09-18T12:17:06;1.52;;;1.40;;
80503;SDS011;69825;51.190;6.808;2023-09-18T12:19:32;1.75;;;1.27;;
80503;SDS011;69825;51.190;6.808;2023-09-18T12:22:00;2.50;;;1.45;;
80503;SDS011;69825;51.190;6.808;2023-09-18T12:24:26;3.05;;;1.40;;
80503;SDS011;69825;51.190;6.808;2023-09-18T12:26:52;1.50;;;1.40;;
80503;SDS011;69825;51.190;6.808;2023-09-18T12:29:19;1.95;;;1.27;;
80503;SDS011;69825;51.190;6.808;2023-09-18T12:31:45;2.85;;;1.48;;
80503;SDS011;69825;51.190;6.808;2023-09-18T12:34:17;2.13;;;1.33;;
80503;SDS011;69825;51.190;6.808;2023-09-18T12:36:44;1.50;;;1.40;;
80503;SDS011;69825;51.190;6.808;2023-09-18T12:39:14;1.63;;;1.30;;
80503;SDS011;69825;51.190;6.808;2023-09-18T12:41:43;1.33;;;1.23;;
80503;SDS011;69825;51.190;6.808;2023-09-18T12:44:09;1.33;;;1.23;;
80503;SDS011;69825;51.190;6.808;2023-09-18T12:46:35;1.75;;;1.35;;
80503;SDS011;69825;51.190;6.808;2023-09-18T12:52:01;2.88;;;1.55;;
80503;SDS011;69825;51.190;6.808;2023-09-18T12:57:06;4.67;;;1.80;;
80503;SDS011;69825;51.190;6.808;2023-09-18T12:59:33;2.60;;;1.40;;
80503;SDS011;69825;51.190;6.808;2023-09-18T13:02:01;2.58;;;1.50;;
80503;SDS011;69825;51.190;6.808;2023-09-18T13:04:29;1.48;;;1.35;;
80503;SDS011;69825;51.190;6.808;2023-09-18T13:09:34;3.13;;;1.40;;
80503;SDS011;69825;51.190;6.808;2023-09-18T13:12:00;2.67;;;1.45;;
80503;SDS011;69825;51.190;6.808;2023-09-18T13:14:26;4.32;;;1.88;;
80503;SDS011;69825;51.190;6.808;2023-09-18T13:16:52;3.25;;;1.52;;
80503;SDS011;69825;51.190;6.808;2023-09-18T13:19:18;4.13;;;1.60;;
80503;SDS011;69825;51.190;6.808;2023-09-18T13:21:50;2.35;;;1.70;;
80503;SDS011;69825;51.190;6.808;2023-09-18T13:24:25;3.40;;;1.55;;
80503;SDS011;69825;51.190;6.808;2023-09-18T13:26:54;2.17;;;1.30;;
80503;SDS011;69825;51.190;6.808;2023-09-18T13:29:21;2.45;;;1.48;;
80503;SDS011;69825;51.190;6.808;2023-09-18T13:31:48;2.83;;;1.48;;
80503;SDS011;69825;51.190;6.808;2023-09-18T13:34:13;1.33;;;1.17;;
80503;SDS011;69825;51.190;6.808;2023-09-18T13:36:42;1.40;;;1.30;;
80503;SDS011;69825;51.190;6.808;2023-09-18T13:39:08;1.73;;;1.48;;
80503;SDS011;69825;51.190;6.808;2023-09-18T13:41:33;1.67;;;1.27;;
80503;SDS011;69825;51.190;6.808;2023-09-18T13:43:59;1.67;;;1.48;;
80503;SDS011;69825;51.190;6.808;2023-09-18T13:46:24;1.63;;;1.40;;
80503;SDS011;69825;51.190;6.808;2023-09-18T13:48:50;1.30;;;1.20;;
80503;SDS011;69825;51.190;6.808;2023-09-18T13:51:16;1.35;;;1.20;;
80503;SDS011;69825;51.190;6.808;2023-09-18T13:53:41;2.03;;;1.48;;
80503;SDS011;69825;51.190;6.808;2023-09-18T13:56:07;2.53;;;1.23;;
80503;SDS011;69825;51.190;6.808;2023-09-18T13:58:32;1.98;;;1.67;;
80503;SDS011;69825;51.190;6.808;2023-09-18T14:00:58;1.98;;;1.60;;
80503;SDS011;69825;51.190;6.808;2023-09-18T14:03:24;2.30;;;1.60;;
80503;SDS011;69825;51.190;6.808;2023-09-18T14:05:49;1.30;;;1.20;;
80503;SDS011;69825;51.190;6.808;2023-09-18T14:08:15;1.80;;;1.30;;
80503;SDS011;69825;51.190;6.808;2023-09-18T14:10:42;1.73;;;1.35;;
80503;SDS011;69825;51.190;6.808;2023-09-18T14:13:08;1.95;;;1.33;;
80503;SDS011;69825;51.190;6.808;2023-09-18T14:15:33;1.15;;;1.02;;
80503;SDS011;69825;51.190;6.808;2023-09-18T14:17:58;1.73;;;1.42;;
80503;SDS011;69825;51.190;6.808;2023-09-18T14:20:24;1.50;;;1.30;;
80503;SDS011;69825;51.190;6.808;2023-09-18T14:22:49;1.98;;;1.40;;
80503;SDS011;69825;51.190;6.808;2023-09-18T14:25:15;1.85;;;1.27;;
80503;SDS011;69825;51.190;6.808;2023-09-18T14:27:41;1.58;;;1.13;;
80503;SDS011;69825;51.190;6.808;2023-09-18T14:30:07;1.48;;;1.20;;
80503;SDS011;69825;51.190;6.808;2023-09-18T14:32:33;1.92;;;1.20;;
80503;SDS011;69825;51.190;6.808;2023-09-18T14:35:00;2.42;;;1.42;;
80503;SDS011;69825;51.190;6.808;2023-09-18T14:37:28;2.50;;;1.55;;
80503;SDS011;69825;51.190;6.808;2023-09-18T14:39:54;2.38;;;1.30;;
80503;SDS011;69825;51.190;6.808;2023-09-18T14:42:19;1.50;;;1.30;;
80503;SDS011;69825;51.190;6.808;2023-09-18T14:44:45;4.50;;;1.48;;
80503;SDS011;69825;51.190;6.808;2023-09-18T14:47:11;1.60;;;1.08;;
80503;SDS011;69825;51.190;6.808;2023-09-18T14:49:37;1.10;;;1.00;;
80503;SDS011;69825;51.190;6.808;2023-09-18T14:52:03;1.35;;;1.25;;
80503;SDS011;69825;51.190;6.808;2023-09-18T14:54:29;1.30;;;1.20;;
80503;SDS011;69825;51.190;6.808;2023-09-18T14:56:54;2.25;;;1.40;;